Currently 44°F in Temecula, California, USA
44°F
49°F / 44°F
calm
0.00"
Tuesday, February 18, 2020 5:32 AM PST

Temecula, California Weather Summary
Last 36 Hours

Temperature Winds Hourly Humidity Dewpoint
Time Report Norm Report Norm Max Gusts Precip. Rpt. Norm Rpt. Norm Pressure
1Tue 05:32 AM  43.5°F  45°F  calm  1 mph  none  0.00"  93%  91%  41°F  42°F  29.96"
3Tue 05:31 AM  43.5°F  45°F  calm  1 mph  none  ----  93%  91%  41°F  42°F  29.96"
Tue 05:00 AM  44.2°F  45°F  calm  1 mph  2 mph  0.00"  93%  90%  42°F  42°F  29.95"
Tue 04:00 AM  44.8°F  45°F  calm  1 mph  none  0.00"  91%  89%  42°F  42°F  29.96"
Tue 03:00 AM  45.7°F  46°F  calm  1 mph  1 mph  0.00"  90%  88%  43°F  43°F  29.95"
Tue 02:00 AM  47.3°F  47°F  calm  1 mph  2 mph  0.00"  89%  87%  44°F  43°F  29.95"
Tue 01:00 AM  48.4°F  48°F  calm  1 mph  2 mph  0.00"  86%  86%  44°F  44°F  29.97"
2Tue 12:13 AM  49.4°F  49°F  1 mph S  1 mph  2 mph  ----  86%  84%  45°F  44°F  29.96"
Tue 12:00 AM  49.2°F  49°F  1 mph S  1 mph  2 mph  0.00"  85%  84%  45°F  44°F  29.96"
Mon 11:00 PM  50.6°F  50°F  calm  2 mph  2 mph  0.00"  82%  82%  45°F  44°F  29.96"
Mon 10:00 PM  52.6°F  51°F  calm  2 mph  5 mph  0.00"  77%  80%  45°F  45°F  29.95"
Mon 09:00 PM  55.2°F  52°F  calm  2 mph  5 mph  0.00"  72%  77%  46°F  45°F  29.94"
Mon 08:00 PM  57.0°F  54°F  1 mph E  3 mph  5 mph  0.00"  69%  74%  47°F  46°F  29.93"
Mon 07:00 PM  59.5°F  56°F  3 mph S  3 mph  7 mph  0.00"  66%  71%  48°F  46°F  29.90"
Mon 06:00 PM  63.2°F  58°F  calm  4 mph  6 mph  0.00"  58%  66%  47°F  46°F  29.88"
Mon 05:00 PM  68.2°F  61°F  3 mph W  5 mph  8 mph  0.00"  50%  60%  48°F  47°F  29.86"
Mon 04:00 PM  69.4°F  64°F  5 mph SW  7 mph  12 mph  0.00"  48%  55%  48°F  47°F  29.85"
Mon 03:00 PM  71.8°F  66°F  8 mph S  7 mph  13 mph  0.00"  45%  51%  49°F  46°F  29.83"
Mon 02:00 PM  72.4°F  66°F  5 mph SW  6 mph  11 mph  0.00"  43%  49%  48°F  46°F  29.82"
Mon 01:00 PM  72.9°F  65°F  3 mph S  6 mph  13 mph  0.00"  36%  50%  44°F  45°F  29.88"
Mon 12:00 PM  69.5°F  63°F  3 mph W  5 mph  7 mph  0.00"  43%  54%  45°F  46°F  29.93"
Mon 11:00 AM  63.0°F  60°F  1 mph NE  4 mph  6 mph  0.00"  53%  61%  45°F  46°F  29.97"
Mon 10:00 AM  56.4°F  55°F  3 mph W  3 mph  3 mph  0.00"  67%  71%  45°F  46°F  29.99"
Mon 09:00 AM  48.9°F  50°F  calm  2 mph  3 mph  0.00"  78%  82%  42°F  45°F  30.01"
Mon 08:00 AM  42.4°F  46°F  calm  1 mph  none  0.00"  90%  89%  40°F  43°F  30.01"
Mon 07:00 AM  39.6°F  44°F  calm  1 mph  none  0.00"  92%  91%  37°F  42°F  30.00"
Mon 06:00 AM  40.8°F  45°F  calm  1 mph  none  0.00"  91%  90%  38°F  42°F  29.99"
Mon 05:00 AM  40.9°F  45°F  calm  1 mph  2 mph  0.00"  89%  89%  38°F  42°F  29.99"
Mon 04:00 AM  42.4°F  46°F  calm  1 mph  3 mph  0.00"  87%  88%  39°F  42°F  29.99"
Mon 03:00 AM  43.3°F  46°F  calm  1 mph  1 mph  0.00"  86%  87%  39°F  43°F  30.00"
Mon 02:00 AM  44.7°F  47°F  calm  1 mph  none  0.00"  83%  86%  40°F  43°F  30.00"
Mon 01:00 AM  46.2°F  48°F  calm  1 mph  none  0.00"  80%  85%  40°F  44°F  30.01"
Mon 12:00 AM  48.1°F  49°F  calm  1 mph  none  0.00"  75%  83%  40°F  44°F  30.01"
Sun 11:00 PM  49.0°F  50°F  calm  1 mph  none  0.00"  72%  81%  40°F  44°F  30.02"
Sun 10:00 PM  51.3°F  51°F  calm  2 mph  4 mph  0.00"  68%  79%  40°F  45°F  30.02"
Sun 09:00 PM  53.7°F  53°F  calm  2 mph  3 mph  0.00"  63%  77%  41°F  45°F  30.02"
Sun 08:00 PM  56.1°F  54°F  2 mph S  3 mph  5 mph  0.00"  60%  74%  42°F  46°F  30.01"
Sun 07:00 PM  58.4°F  56°F  2 mph SW  3 mph  8 mph  0.00"  58%  70%  43°F  46°F  30.01"
Sun 06:00 PM  61.7°F  58°F  calm  4 mph  12 mph  0.00"  51%  66%  42°F  46°F  30.01"

  1. Current weather data. No green row appears if the current weather data is also the high or low for the current day.
  2. High temperature for the current day.
  3. Low temperature for the current day.

The Temecula weather pages are a service of WeatherCurrents. Temecula, California is located in the Temecula Valley, in southwestern Riverside County, along the Interstate 15 highway. The Temecula Valley's rolling hills are home to the Temecula wine country, vineyards, golf courses, a casino resort, and Old Town Temecula.
Copyright ©2020  WeatherCurrents. All rights reserved. - Submit questions and comments - Privacy Policy

This page automatically refreshes every 10 minutes.